Time;durP1;ratioP1;P1;durP2;ratioP2;P2;SDS_P1;SDS_P2;PMS_P1;PMS_P2;Temp;Humidity;BMP_temperature;BMP_pressure;BME280_temperature;BME280_humidity;BME280_pressure;Samples;Min_cycle;Max_cycle;Signal;HPM_P1;HPM_P2
2024/02/24 00:01:27;;;;;;;1.30;0.70;;;9.30;99.90;;;;;;4991813;28;20465;-46
2024/02/24 00:03:57;;;;;;;1.60;0.90;;;9.30;99.90;;;;;;4989987;28;20464;-46
2024/02/24 00:06:25;;;;;;;2.33;0.87;;;9.20;99.90;;;;;;4984676;28;20480;-46
2024/02/24 00:08:54;;;;;;;1.40;0.80;;;9.20;99.90;;;;;;4989265;28;20824;-46
2024/02/24 00:11:25;;;;;;;1.53;0.80;;;9.20;99.90;;;;;;4990796;28;20938;-46
2024/02/24 00:13:56;;;;;;;2.80;0.80;;;9.20;99.90;;;;;;4992500;28;20453;-46
2024/02/24 00:16:28;;;;;;;1.57;0.83;;;9.20;99.90;;;;;;4988598;28;20481;-46
2024/02/24 00:18:59;;;;;;;1.80;0.87;;;9.20;99.90;;;;;;4989651;28;20444;-46
2024/02/24 00:21:27;;;;;;;1.80;0.90;;;9.20;99.90;;;;;;4991795;28;20472;-46
2024/02/24 00:23:55;;;;;;;3.20;1.10;;;9.20;99.90;;;;;;4992296;28;20529;-46
2024/02/24 00:26:24;;;;;;;2.07;1.10;;;9.20;99.90;;;;;;4985917;28;20481;-46
2024/02/24 00:28:53;;;;;;;2.37;0.90;;;9.20;99.90;;;;;;4991904;28;20492;-46
2024/02/24 00:31:22;;;;;;;1.93;0.90;;;9.20;99.90;;;;;;4990728;28;20466;-46
2024/02/24 00:33:52;;;;;;;1.80;0.70;;;9.20;99.90;;;;;;4989462;28;20552;-46
2024/02/24 00:36:25;;;;;;;1.73;0.70;;;9.20;99.90;;;;;;4990588;28;20560;-46
2024/02/24 00:38:54;;;;;;;1.87;1.17;;;9.20;99.90;;;;;;4991625;28;20440;-46
2024/02/24 00:41:24;;;;;;;1.63;0.93;;;9.20;99.90;;;;;;4989629;28;20489;-46
2024/02/24 00:43:54;;;;;;;2.27;0.80;;;9.20;99.90;;;;;;4991293;28;20573;-45
2024/02/24 00:46:24;;;;;;;2.60;0.90;;;9.20;99.90;;;;;;4990827;28;20975;-46
2024/02/24 00:48:55;;;;;;;1.50;0.90;;;9.20;99.90;;;;;;4985946;28;20821;-46
2024/02/24 00:51:24;;;;;;;1.77;0.80;;;9.20;99.90;;;;;;5010683;28;20535;-46
2024/02/24 00:53:56;;;;;;;1.67;0.70;;;9.20;99.90;;;;;;5011332;28;20487;-47
2024/02/24 00:56:27;;;;;;;1.50;0.50;;;9.20;99.90;;;;;;5016569;28;20467;-46
2024/02/24 00:58:57;;;;;;;1.57;0.63;;;9.20;99.90;;;;;;5009417;28;20433;-46
2024/02/24 01:01:25;;;;;;;1.37;0.63;;;9.20;99.90;;;;;;5009990;28;21012;-46
2024/02/24 01:03:58;;;;;;;1.10;0.63;;;9.20;99.90;;;;;;5008377;28;20519;-46
2024/02/24 01:06:27;;;;;;;1.90;0.90;;;9.20;99.90;;;;;;5010341;28;20552;-46
2024/02/24 01:08:56;;;;;;;1.90;0.67;;;9.20;99.90;;;;;;5010575;28;20497;-46
2024/02/24 01:11:25;;;;;;;1.10;0.60;;;9.20;99.90;;;;;;5009992;28;20471;-46
2024/02/24 01:13:55;;;;;;;1.30;0.70;;;9.20;99.90;;;;;;5011117;28;20460;-46
2024/02/24 01:16:25;;;;;;;1.60;0.60;;;9.20;99.90;;;;;;5005364;28;21036;-46
2024/02/24 01:18:58;;;;;;;1.50;0.80;;;9.10;99.90;;;;;;5007942;28;20469;-46
2024/02/24 01:21:26;;;;;;;1.20;0.50;;;9.20;99.90;;;;;;5010133;28;20469;-46
2024/02/24 01:23:57;;;;;;;1.43;0.77;;;9.20;99.90;;;;;;5011122;28;20446;-46
2024/02/24 01:26:26;;;;;;;1.10;0.50;;;9.20;99.90;;;;;;5007395;28;20569;-46
2024/02/24 01:28:57;;;;;;;1.20;0.53;;;9.10;99.90;;;;;;5010395;28;20958;-46
2024/02/24 01:31:25;;;;;;;1.60;0.60;;;9.10;99.90;;;;;;5009615;28;20472;-46
2024/02/24 01:33:58;;;;;;;1.13;0.50;;;9.10;99.90;;;;;;5007006;28;20477;-46
2024/02/24 01:36:27;;;;;;;1.53;0.63;;;9.10;99.90;;;;;;5009689;28;20472;-46
2024/02/24 01:38:55;;;;;;;2.33;0.60;;;9.10;99.90;;;;;;5008718;28;20442;-46
2024/02/24 01:41:24;;;;;;;1.00;0.40;;;9.10;99.90;;;;;;5010602;28;20514;-46
2024/02/24 01:43:53;;;;;;;1.30;0.77;;;9.10;99.90;;;;;;5010395;28;20465;-46
2024/02/24 01:46:25;;;;;;;3.43;0.67;;;9.10;99.90;;;;;;5009890;28;20460;-46
2024/02/24 01:48:58;;;;;;;1.13;0.60;;;9.10;99.90;;;;;;5004309;28;20524;-46
2024/02/24 01:51:27;;;;;;;1.33;0.60;;;9.10;99.90;;;;;;5013976;28;20456;-46
2024/02/24 01:53:57;;;;;;;1.93;0.60;;;9.10;99.90;;;;;;5011630;28;20492;-46
2024/02/24 01:56:27;;;;;;;1.30;0.47;;;9.10;99.90;;;;;;5008772;28;21181;-46
2024/02/24 01:58:56;;;;;;;1.40;0.70;;;9.10;99.90;;;;;;5008860;28;20444;-46
2024/02/24 02:01:25;;;;;;;1.87;0.87;;;9.10;99.90;;;;;;5010119;28;21109;-46
2024/02/24 02:03:58;;;;;;;2.17;0.93;;;9.10;99.90;;;;;;5008199;28;20644;-46
2024/02/24 02:06:28;;;;;;;1.90;1.00;;;9.10;99.90;;;;;;5009629;28;20558;-46
2024/02/24 02:08:57;;;;;;;1.20;0.50;;;9.10;99.90;;;;;;5009771;28;20438;-46
2024/02/24 02:11:27;;;;;;;1.73;0.90;;;9.10;99.90;;;;;;5010224;28;21018;-46
2024/02/24 02:13:56;;;;;;;1.80;0.90;;;9.10;99.90;;;;;;5009686;28;20472;-46
2024/02/24 02:16:24;;;;;;;1.10;0.70;;;9.10;99.90;;;;;;5009145;28;20535;-45
2024/02/24 02:18:55;;;;;;;2.70;0.87;;;9.10;99.90;;;;;;5002237;28;20508;-46
2024/02/24 02:21:31;;;;;;;1.23;0.60;;;9.10;99.90;;;;;;5008290;28;20546;-46
2024/02/24 02:24:02;;;;;;;1.50;0.87;;;9.10;99.90;;;;;;5009013;28;20449;-46
2024/02/24 02:26:31;;;;;;;2.00;0.80;;;9.10;99.90;;;;;;5009224;28;20546;-46
2024/02/24 02:29:01;;;;;;;1.10;0.60;;;9.10;99.90;;;;;;5008284;28;20477;-46
2024/02/24 02:31:29;;;;;;;1.40;0.57;;;9.10;99.90;;;;;;5009265;28;20994;-46
2024/02/24 02:33:57;;;;;;;1.40;0.73;;;9.10;99.90;;;;;;5009119;28;20472;-46
2024/02/24 02:36:27;;;;;;;2.60;0.70;;;9.10;99.90;;;;;;5011663;28;20461;-46
2024/02/24 02:38:55;;;;;;;1.20;0.50;;;9.10;99.90;;;;;;5007902;28;20504;-47
2024/02/24 02:41:25;;;;;;;1.50;0.70;;;9.10;99.90;;;;;;5013232;28;20453;-46
2024/02/24 02:43:53;;;;;;;1.87;0.90;;;9.10;99.90;;;;;;5013690;28;20456;-46
2024/02/24 02:46:25;;;;;;;1.73;1.03;;;9.00;99.90;;;;;;5013042;28;20559;-46
2024/02/24 02:48:56;;;;;;;1.37;0.83;;;9.00;99.90;;;;;;5008985;28;20459;-46
2024/02/24 02:51:25;;;;;;;1.10;0.70;;;9.00;99.90;;;;;;5013597;28;20531;-46
2024/02/24 02:53:54;;;;;;;1.63;0.73;;;9.00;99.90;;;;;;5018173;28;20469;-46
2024/02/24 02:56:28;;;;;;;2.47;1.00;;;9.00;99.90;;;;;;5014024;28;21001;-46
2024/02/24 02:58:57;;;;;;;1.00;0.40;;;9.00;99.90;;;;;;5010051;28;20473;-46
2024/02/24 03:01:27;;;;;;;1.87;0.77;;;9.00;99.90;;;;;;5011864;28;20926;-46
2024/02/24 03:03:57;;;;;;;1.30;0.57;;;9.00;99.90;;;;;;5005730;28;20552;-46
2024/02/24 03:06:27;;;;;;;1.60;0.73;;;9.00;99.90;;;;;;5012818;28;21013;-46
2024/02/24 03:08:57;;;;;;;1.30;0.80;;;9.00;99.90;;;;;;5010495;28;21093;-46
2024/02/24 03:11:27;;;;;;;2.20;0.60;;;9.00;99.90;;;;;;5012765;28;20473;-46
2024/02/24 03:13:56;;;;;;;1.93;0.87;;;9.00;99.90;;;;;;5012401;28;20473;-46
2024/02/24 03:16:25;;;;;;;1.80;0.87;;;9.00;99.90;;;;;;5009812;28;20475;-46
2024/02/24 03:18:54;;;;;;;1.50;0.57;;;9.00;99.90;;;;;;5008847;28;20449;-46
2024/02/24 03:21:26;;;;;;;1.43;0.67;;;9.00;99.90;;;;;;5012170;28;20461;-46
2024/02/24 03:23:57;;;;;;;1.10;0.63;;;9.00;99.90;;;;;;5007100;28;20895;-46
2024/02/24 03:26:26;;;;;;;1.43;0.50;;;9.00;99.90;;;;;;5008883;28;20551;-45
2024/02/24 03:28:57;;;;;;;1.20;0.63;;;9.00;99.90;;;;;;5011777;28;20503;-46
2024/02/24 03:31:27;;;;;;;1.20;0.60;;;9.00;99.90;;;;;;5010198;28;20464;-46
2024/02/24 03:33:56;;;;;;;1.60;0.70;;;9.00;99.90;;;;;;5005978;28;20523;-46
2024/02/24 03:36:26;;;;;;;1.20;0.53;;;9.00;99.90;;;;;;5010338;28;20460;-46
2024/02/24 03:38:55;;;;;;;1.57;0.60;;;9.00;99.90;;;;;;5010829;28;20441;-46
2024/02/24 03:41:32;;;;;;;2.60;0.50;;;9.00;99.90;;;;;;5012391;28;20457;-48
2024/02/24 03:44:01;;;;;;;1.10;0.60;;;9.00;99.90;;;;;;5003175;28;20571;-47
2024/02/24 03:46:31;;;;;;;1.63;0.70;;;9.00;99.90;;;;;;5011874;28;20464;-46
2024/02/24 03:49:00;;;;;;;1.00;0.40;;;9.00;99.90;;;;;;5009968;28;20441;-47
2024/02/24 03:51:31;;;;;;;1.27;0.40;;;9.00;99.90;;;;;;5010049;28;20468;-47
2024/02/24 03:53:59;;;;;;;1.10;0.60;;;9.00;99.90;;;;;;5011315;28;20989;-47
2024/02/24 03:56:27;;;;;;;1.30;0.60;;;9.00;99.90;;;;;;5009630;28;20518;-48
2024/02/24 03:58:58;;;;;;;1.47;0.87;;;9.00;99.90;;;;;;5012332;28;20440;-47
2024/02/24 04:01:27;;;;;;;1.07;0.40;;;9.00;99.90;;;;;;5015491;28;20478;-46
2024/02/24 04:03:56;;;;;;;1.07;0.40;;;9.00;99.90;;;;;;5008979;28;20827;-48
2024/02/24 04:06:27;;;;;;;0.97;0.40;;;8.90;99.90;;;;;;5010925;28;20455;-47
2024/02/24 04:08:57;;;;;;;1.30;0.60;;;8.90;99.90;;;;;;5012652;28;20441;-45
2024/02/24 04:11:25;;;;;;;1.10;0.60;;;9.00;99.90;;;;;;5011181;28;20461;-49
2024/02/24 04:13:54;;;;;;;1.30;0.60;;;8.90;99.90;;;;;;5010300;28;20484;-47
2024/02/24 04:16:27;;;;;;;1.27;0.50;;;8.90;99.90;;;;;;5007814;28;20854;-49
2024/02/24 04:18:57;;;;;;;1.30;0.70;;;8.90;99.90;;;;;;5009948;28;20445;-47
2024/02/24 04:21:26;;;;;;;1.30;0.53;;;8.90;99.90;;;;;;5011194;28;20457;-48
2024/02/24 04:23:57;;;;;;;1.67;0.67;;;8.90;99.90;;;;;;5011375;28;20456;-48
2024/02/24 04:26:27;;;;;;;1.30;0.60;;;8.90;99.90;;;;;;5009638;28;20489;-47
2024/02/24 04:28:55;;;;;;;2.40;0.60;;;8.90;99.90;;;;;;5002523;28;20963;-48
2024/02/24 04:31:23;;;;;;;1.00;0.50;;;8.90;99.90;;;;;;5009766;28;20468;-47
2024/02/24 04:33:53;;;;;;;1.53;0.50;;;8.90;99.90;;;;;;5006724;28;20480;-48
2024/02/24 04:36:22;;;;;;;3.90;0.80;;;8.90;99.90;;;;;;5008319;28;20479;-47
2024/02/24 04:38:55;;;;;;;1.43;0.57;;;8.90;99.90;;;;;;5009993;28;20433;-48
2024/02/24 04:41:26;;;;;;;1.63;0.60;;;8.90;99.90;;;;;;5010436;28;20496;-48
2024/02/24 04:43:55;;;;;;;2.23;0.70;;;8.90;99.90;;;;;;5008005;28;20994;-47
2024/02/24 04:46:24;;;;;;;1.27;0.77;;;8.90;99.90;;;;;;5010346;28;20890;-48
2024/02/24 04:48:57;;;;;;;2.20;0.90;;;8.90;99.90;;;;;;5009362;28;20974;-46
2024/02/24 04:51:27;;;;;;;1.10;0.40;;;8.80;99.90;;;;;;5011189;28;20539;-46
2024/02/24 04:53:57;;;;;;;1.20;0.60;;;8.90;99.90;;;;;;5011071;28;20501;-47
2024/02/24 04:56:26;;;;;;;1.20;0.43;;;8.90;99.90;;;;;;5009863;28;20492;-47
2024/02/24 04:58:55;;;;;;;1.10;0.40;;;8.90;99.90;;;;;;5007219;28;20445;-47
2024/02/24 05:01:23;;;;;;;1.83;0.57;;;8.90;99.90;;;;;;5011067;28;21046;-46
2024/02/24 05:03:52;;;;;;;1.10;0.50;;;8.90;99.90;;;;;;5007835;28;20472;-48
2024/02/24 05:06:22;;;;;;;1.30;0.60;;;8.80;99.90;;;;;;5008643;28;20842;-49
2024/02/24 05:08:52;;;;;;;1.10;0.50;;;8.80;99.90;;;;;;5012512;28;20532;-47
2024/02/24 05:11:24;;;;;;;1.93;0.60;;;8.80;99.90;;;;;;5009844;28;20461;-46
2024/02/24 05:13:55;;;;;;;1.33;0.60;;;8.80;99.90;;;;;;5010897;28;20459;-46
2024/02/24 05:16:27;;;;;;;1.27;0.50;;;8.80;99.90;;;;;;5009175;28;20527;-46
2024/02/24 05:18:56;;;;;;;1.10;0.40;;;8.80;99.90;;;;;;5011662;28;20522;-46
2024/02/24 05:21:28;;;;;;;1.20;0.63;;;8.80;99.90;;;;;;5010042;28;20465;-47
2024/02/24 05:23:57;;;;;;;1.20;0.50;;;8.80;99.90;;;;;;5006279;28;20469;-47
2024/02/24 05:26:27;;;;;;;1.10;0.40;;;8.80;99.90;;;;;;5008733;28;20457;-47
2024/02/24 05:28:57;;;;;;;1.30;0.50;;;8.80;99.90;;;;;;5004899;28;20818;-48
2024/02/24 05:31:27;;;;;;;1.20;0.40;;;8.80;99.90;;;;;;5007471;28;20966;-48
2024/02/24 05:33:57;;;;;;;1.60;0.60;;;8.80;99.90;;;;;;5007859;28;20552;-48
2024/02/24 05:36:28;;;;;;;1.10;0.50;;;8.80;99.90;;;;;;5016889;28;20815;-46
2024/02/24 05:38:58;;;;;;;1.20;0.57;;;8.80;99.90;;;;;;5010304;28;20441;-46
2024/02/24 05:41:27;;;;;;;1.17;0.40;;;8.80;99.90;;;;;;5007000;28;20477;-46
2024/02/24 05:43:56;;;;;;;1.10;0.53;;;8.80;99.90;;;;;;5011922;28;20465;-46
2024/02/24 05:46:27;;;;;;;1.50;0.60;;;8.80;99.90;;;;;;5009743;28;20535;-46
2024/02/24 05:48:56;;;;;;;1.20;0.60;;;8.80;99.90;;;;;;5005989;28;20544;-46
2024/02/24 05:51:27;;;;;;;1.43;0.53;;;8.80;99.90;;;;;;5008323;28;20465;-45
2024/02/24 05:53:58;;;;;;;2.07;0.60;;;8.80;99.90;;;;;;5007264;28;20998;-45
2024/02/24 05:56:27;;;;;;;2.33;0.60;;;8.80;99.90;;;;;;5009755;28;20664;-46
2024/02/24 05:58:55;;;;;;;1.50;0.70;;;8.80;99.90;;;;;;5007903;28;20931;-45
2024/02/24 06:01:27;;;;;;;1.00;0.43;;;8.80;99.90;;;;;;5008051;28;20476;-46
2024/02/24 06:03:56;;;;;;;1.40;0.70;;;8.80;99.90;;;;;;5007765;28;20477;-44
2024/02/24 06:06:27;;;;;;;1.37;0.50;;;8.80;99.90;;;;;;5009219;28;20500;-44
2024/02/24 06:08:58;;;;;;;1.40;0.50;;;8.80;99.90;;;;;;5011931;28;20780;-46
2024/02/24 06:11:27;;;;;;;1.27;0.50;;;8.80;99.90;;;;;;5011909;28;21010;-44
2024/02/24 06:13:55;;;;;;;1.00;0.40;;;8.80;99.90;;;;;;5013620;28;20448;-45
2024/02/24 06:16:27;;;;;;;1.60;0.60;;;8.80;99.90;;;;;;5013412;28;20491;-45
2024/02/24 06:18:55;;;;;;;1.10;0.40;;;8.80;99.90;;;;;;5010035;28;20452;-45
2024/02/24 06:21:28;;;;;;;1.73;0.80;;;8.80;99.90;;;;;;5013183;28;21000;-45
2024/02/24 06:23:58;;;;;;;1.40;0.53;;;8.70;99.90;;;;;;5014124;28;20452;-45
2024/02/24 06:26:27;;;;;;;2.47;0.70;;;8.70;99.90;;;;;;5010035;28;20472;-44
2024/02/24 06:28:57;;;;;;;1.10;0.43;;;8.70;99.90;;;;;;5012798;28;20507;-44
2024/02/24 06:31:25;;;;;;;1.20;0.40;;;8.70;99.90;;;;;;5012749;28;20507;-45
2024/02/24 06:33:54;;;;;;;1.17;0.47;;;8.70;99.90;;;;;;5009098;28;20471;-43
2024/02/24 06:36:22;;;;;;;1.97;0.60;;;8.70;99.90;;;;;;5010121;28;20468;-45
2024/02/24 06:38:51;;;;;;;1.70;0.70;;;8.70;99.90;;;;;;5011454;28;20437;-44
2024/02/24 06:41:23;;;;;;;2.43;1.20;;;8.70;99.90;;;;;;5010976;28;21049;-44
2024/02/24 06:43:52;;;;;;;1.13;0.60;;;8.70;99.90;;;;;;5033239;28;20519;-45
2024/02/24 06:46:21;;;;;;;1.50;0.60;;;8.70;99.90;;;;;;5012532;28;20457;-45
2024/02/24 06:48:49;;;;;;;2.17;1.03;;;8.70;99.90;;;;;;5008875;28;20869;-44
2024/02/24 06:51:18;;;;;;;1.40;0.70;;;8.70;99.90;;;;;;5013330;28;20544;-46
2024/02/24 06:53:47;;;;;;;1.40;0.63;;;8.70;99.90;;;;;;5013440;28;20453;-45
2024/02/24 06:56:21;;;;;;;2.70;0.60;;;8.70;99.90;;;;;;5006269;28;20732;-45
2024/02/24 06:58:50;;;;;;;1.40;0.60;;;8.70;99.90;;;;;;5013295;28;20437;-45
2024/02/24 07:01:22;;;;;;;1.17;0.40;;;8.70;99.90;;;;;;5013267;28;20530;-45
2024/02/24 07:03:51;;;;;;;1.30;0.50;;;8.70;99.90;;;;;;5011062;28;20989;-44
2024/02/24 07:06:21;;;;;;;2.50;0.90;;;8.70;99.90;;;;;;5012885;28;20457;-46
2024/02/24 07:08:50;;;;;;;1.23;0.50;;;8.70;99.90;;;;;;5012335;28;20874;-45
2024/02/24 07:11:19;;;;;;;1.60;0.53;;;8.70;99.90;;;;;;5012743;28;20472;-44
2024/02/24 07:13:48;;;;;;;1.40;0.70;;;8.70;99.90;;;;;;5015801;28;20457;-45
2024/02/24 07:16:19;;;;;;;2.17;0.80;;;8.70;99.90;;;;;;5010808;28;20467;-45
2024/02/24 07:18:48;;;;;;;1.97;0.87;;;8.60;99.90;;;;;;5009708;28;20454;-46
2024/02/24 07:21:16;;;;;;;1.90;0.90;;;8.60;99.90;;;;;;5012679;28;20475;-46
2024/02/24 07:23:47;;;;;;;1.97;0.80;;;8.60;99.90;;;;;;5012956;28;20461;-47
2024/02/24 07:26:18;;;;;;;1.53;0.40;;;8.60;99.90;;;;;;5011915;28;20460;-45
2024/02/24 07:28:49;;;;;;;1.00;0.40;;;8.60;99.90;;;;;;5006329;28;20525;-46
2024/02/24 07:31:18;;;;;;;2.00;0.77;;;8.60;99.90;;;;;;5008253;28;20487;-47
2024/02/24 07:33:46;;;;;;;1.37;0.70;;;8.60;99.90;;;;;;5011664;28;20510;-46
2024/02/24 07:36:16;;;;;;;2.53;0.90;;;8.60;99.90;;;;;;5007542;28;20491;-44
2024/02/24 07:38:46;;;;;;;1.97;0.77;;;8.60;99.90;;;;;;5011464;28;20792;-46
2024/02/24 07:41:17;;;;;;;1.10;0.53;;;8.60;99.90;;;;;;5011146;28;20820;-46
2024/02/24 07:43:46;;;;;;;1.70;0.60;;;8.60;99.90;;;;;;5008661;28;20535;-46
2024/02/24 07:46:27;;;;;;;1.10;0.40;;;8.60;99.90;;;;;;5009003;28;20456;-46
2024/02/24 07:48:58;;;;;;;1.73;0.63;;;8.60;99.90;;;;;;5010108;28;20449;-47
2024/02/24 07:51:28;;;;;;;2.03;0.90;;;8.60;99.90;;;;;;5008962;28;21054;-46
2024/02/24 07:53:58;;;;;;;1.83;0.67;;;8.60;99.90;;;;;;5012762;28;20445;-46
2024/02/24 07:56:28;;;;;;;1.47;0.60;;;8.60;99.90;;;;;;5011413;28;20476;-46
2024/02/24 07:58:57;;;;;;;1.33;0.83;;;8.60;99.90;;;;;;5011116;28;20966;-46
2024/02/24 08:01:29;;;;;;;1.37;0.67;;;8.60;99.90;;;;;;5011638;28;21203;-46
2024/02/24 08:04:01;;;;;;;1.03;0.47;;;8.60;99.90;;;;;;5014001;28;20465;-46
2024/02/24 08:06:32;;;;;;;1.97;0.90;;;8.60;99.90;;;;;;5009599;28;20465;-46
2024/02/24 08:09:01;;;;;;;2.03;0.50;;;8.60;99.90;;;;;;5012705;28;20425;-46
2024/02/24 08:11:39;;;;;;;1.20;0.50;;;8.60;99.90;;;;;;5011596;28;20560;-46
2024/02/24 08:14:14;;;;;;;1.90;0.70;;;8.60;99.90;;;;;;5011495;28;20445;-46
2024/02/24 08:16:46;;;;;;;1.97;0.70;;;8.50;99.90;;;;;;5011123;28;20473;-44
2024/02/24 08:19:17;;;;;;;1.37;0.40;;;8.50;99.90;;;;;;5009077;28;20471;-44
2024/02/24 08:21:47;;;;;;;1.00;0.40;;;8.50;99.90;;;;;;5009145;28;20483;-45
2024/02/24 08:24:17;;;;;;;1.10;0.57;;;8.50;99.90;;;;;;5011857;28;20316;-46
2024/02/24 08:26:48;;;;;;;1.77;0.80;;;8.60;99.90;;;;;;5009790;28;20834;-47
2024/02/24 08:29:17;;;;;;;1.70;1.07;;;8.50;99.90;;;;;;5008913;28;20523;-46
2024/02/24 08:31:48;;;;;;;1.90;1.30;;;8.50;99.90;;;;;;5005091;28;20538;-47
2024/02/24 08:34:19;;;;;;;1.30;0.60;;;8.50;99.90;;;;;;5006143;28;20472;-46
2024/02/24 08:36:51;;;;;;;1.13;0.57;;;8.50;99.90;;;;;;5009017;28;20313;-44
2024/02/24 08:39:22;;;;;;;1.00;0.60;;;8.50;99.90;;;;;;5007917;28;20454;-45
2024/02/24 08:41:56;;;;;;;1.30;0.50;;;8.50;99.90;;;;;;5014248;28;20212;-46
2024/02/24 08:44:28;;;;;;;1.20;0.50;;;8.50;99.90;;;;;;5011221;28;20476;-45
2024/02/24 08:47:02;;;;;;;1.27;0.60;;;8.50;99.90;;;;;;5010758;28;20822;-44
2024/02/24 08:49:31;;;;;;;1.25;0.60;;;8.50;99.90;;;;;;5008616;28;20452;-46
2024/02/24 08:52:05;;;;;;;1.63;0.75;;;8.60;99.90;;;;;;5010771;28;20221;-45
2024/02/24 08:54:38;;;;;;;1.23;0.47;;;8.60;99.90;;;;;;5008869;28;20345;-44
2024/02/24 08:57:12;;;;;;;1.43;0.63;;;8.60;99.90;;;;;;5007742;28;20472;-45
2024/02/24 08:59:42;;;;;;;1.63;0.50;;;8.60;99.90;;;;;;5007847;28;20444;-44
2024/02/24 09:02:20;;;;;;;1.23;0.40;;;8.60;99.90;;;;;;5021669;28;20466;-47
2024/02/24 09:04:50;;;;;;;1.20;0.50;;;8.60;99.90;;;;;;5007498;28;20456;-46
2024/02/24 09:07:22;;;;;;;1.10;0.45;;;8.60;99.90;;;;;;5008146;28;20515;-46
2024/02/24 09:09:56;;;;;;;1.57;0.50;;;8.60;99.90;;;;;;5012120;28;20198;-45
2024/02/24 09:12:31;;;;;;;1.20;0.50;;;8.60;99.90;;;;;;5001857;28;20476;-46
2024/02/24 09:15:01;;;;;;;1.57;0.63;;;8.60;99.90;;;;;;5009656;28;20472;-45
2024/02/24 09:17:32;;;;;;;1.20;0.50;;;8.60;99.90;;;;;;5010802;28;20473;-45
2024/02/24 09:20:01;;;;;;;1.70;0.80;;;8.60;99.90;;;;;;5005719;28;21225;-46
2024/02/24 09:22:31;;;;;;;3.72;0.60;;;8.70;98.60;;;;;;5004461;28;20849;-46
2024/02/24 09:25:00;;;;;;;3.60;1.07;;;8.80;97.10;;;;;;5008444;28;20288;-44
2024/02/24 09:27:33;;;;;;;1.40;0.50;;;8.60;97.80;;;;;;5019747;28;20464;-46
2024/02/24 09:30:01;;;;;;;2.08;0.75;;;8.60;99.70;;;;;;5009209;28;20658;-45
2024/02/24 09:32:31;;;;;;;1.67;0.45;;;8.60;99.90;;;;;;5008708;28;20234;-45
2024/02/24 09:35:01;;;;;;;1.80;0.75;;;8.50;99.90;;;;;;5006488;28;20316;-45
2024/02/24 09:37:29;;;;;;;1.27;0.50;;;8.50;99.90;;;;;;5017102;28;20593;-44
2024/02/24 09:39:57;;;;;;;2.35;0.52;;;8.50;99.90;;;;;;5016572;28;20441;-45
2024/02/24 09:42:32;;;;;;;1.50;0.80;;;8.50;99.90;;;;;;5011514;28;20221;-44
2024/02/24 09:45:02;;;;;;;1.30;0.50;;;8.50;99.90;;;;;;5021147;28;20543;-44
2024/02/24 09:47:33;;;;;;;1.93;0.40;;;8.50;99.90;;;;;;5016008;28;20962;-44
2024/02/24 09:50:04;;;;;;;1.47;0.70;;;8.60;99.90;;;;;;5013920;28;20452;-45
2024/02/24 09:52:34;;;;;;;1.30;0.40;;;8.60;99.90;;;;;;5018822;28;21055;-46
2024/02/24 09:55:10;;;;;;;1.50;0.50;;;8.60;99.90;;;;;;5012703;28;21036;-45
2024/02/24 09:57:43;;;;;;;1.50;0.50;;;8.60;99.90;;;;;;5008783;28;21061;-44
2024/02/24 10:00:17;;;;;;;1.20;0.50;;;8.60;99.90;;;;;;5013909;28;20443;-46
2024/02/24 10:02:49;;;;;;;4.97;0.60;;;8.60;99.90;;;;;;5009694;28;20969;-46
2024/02/24 10:05:22;;;;;;;2.20;0.67;;;8.60;99.90;;;;;;5014607;28;20238;-45
2024/02/24 10:07:51;;;;;;;1.70;0.73;;;8.60;99.90;;;;;;5017783;28;20528;-46
2024/02/24 10:10:26;;;;;;;1.40;0.50;;;8.60;99.90;;;;;;5015360;28;20447;-45
2024/02/24 10:12:57;;;;;;;1.40;0.60;;;8.60;99.90;;;;;;5017972;28;20436;-45
2024/02/24 10:15:28;;;;;;;1.10;0.57;;;8.60;99.90;;;;;;5020768;28;20475;-46
2024/02/24 10:18:03;;;;;;;2.97;0.60;;;8.60;99.90;;;;;;5017986;28;20475;-44
2024/02/24 10:20:32;;;;;;;1.93;0.97;;;8.70;99.90;;;;;;5014996;28;20518;-46
2024/02/24 10:23:01;;;;;;;1.27;0.60;;;8.70;99.90;;;;;;5011289;28;20440;-45
2024/02/24 10:25:30;;;;;;;4.20;0.63;;;8.70;99.90;;;;;;5010799;28;20481;-44
2024/02/24 10:28:01;;;;;;;1.50;0.60;;;8.70;99.90;;;;;;5013979;28;20421;-46
2024/02/24 10:30:31;;;;;;;7.33;1.23;;;8.70;99.90;;;;;;5017647;28;20480;-45
2024/02/24 10:33:05;;;;;;;1.37;0.80;;;8.70;99.90;;;;;;5016697;28;20425;-46
2024/02/24 10:35:36;;;;;;;3.25;0.60;;;8.70;99.90;;;;;;5017162;28;20559;-45
2024/02/24 10:38:05;;;;;;;6.07;0.90;;;8.70;99.90;;;;;;5015454;28;20220;-45
2024/02/24 10:40:56;;;;;;;1.97;0.67;;;8.70;99.90;;;;;;5015119;28;20479;-45
2024/02/24 10:43:28;;;;;;;1.20;0.43;;;8.70;99.90;;;;;;5015228;28;21064;-44
2024/02/24 10:45:57;;;;;;;2.53;0.67;;;8.70;99.90;;;;;;5015331;28;20471;-45
2024/02/24 10:48:28;;;;;;;3.25;0.88;;;8.70;99.90;;;;;;5008369;28;20541;-44
2024/02/24 10:50:57;;;;;;;2.67;1.20;;;8.70;99.90;;;;;;5029137;28;20221;-45
2024/02/24 10:53:31;;;;;;;2.13;0.97;;;8.70;99.90;;;;;;5032987;28;20452;-45
2024/02/24 10:56:02;;;;;;;2.40;0.80;;;8.70;99.90;;;;;;5034188;28;20804;-44
2024/02/24 10:58:32;;;;;;;1.37;0.60;;;8.70;99.90;;;;;;5034206;28;20478;-45
2024/02/24 11:01:01;;;;;;;4.87;0.90;;;8.70;99.90;;;;;;5030009;28;20475;-45
2024/02/24 11:03:32;;;;;;;1.40;0.60;;;8.70;99.90;;;;;;5029746;28;20444;-45
2024/02/24 11:06:02;;;;;;;3.03;0.60;;;8.70;99.90;;;;;;5031042;28;20512;-45
2024/02/24 11:08:36;;;;;;;2.30;0.63;;;8.70;99.90;;;;;;5032275;28;20446;-45
2024/02/24 11:11:10;;;;;;;2.60;0.60;;;8.60;99.90;;;;;;5031696;28;20499;-44
2024/02/24 11:13:47;;;;;;;2.70;0.63;;;8.70;99.90;;;;;;5027348;28;20507;-45
2024/02/24 11:16:37;;;;;;;2.77;0.73;;;8.70;99.90;;;;;;5030622;28;20854;-46
2024/02/24 11:19:10;;;;;;;3.10;0.67;;;8.70;99.90;;;;;;5030982;28;20892;-46
2024/02/24 11:22:07;;;;;;;1.10;0.40;;;8.70;99.90;;;;;;5026472;28;21163;-44
2024/02/24 11:24:37;;;;;;;3.10;0.70;;;8.70;99.90;;;;;;5030452;28;20550;-45
2024/02/24 11:27:06;;;;;;;2.23;0.60;;;8.70;99.90;;;;;;5031895;28;20841;-45
2024/02/24 11:29:36;;;;;;;1.67;0.57;;;8.70;99.90;;;;;;5032402;28;20619;-45
2024/02/24 11:32:06;;;;;;;1.60;0.70;;;8.70;99.90;;;;;;5034538;28;20471;-44
2024/02/24 11:34:37;;;;;;;2.87;0.60;;;8.70;99.90;;;;;;5032158;28;20521;-46
2024/02/24 11:37:08;;;;;;;2.80;0.80;;;8.70;99.90;;;;;;5026446;28;20471;-45
2024/02/24 11:39:39;;;;;;;1.10;0.50;;;8.70;99.90;;;;;;5031553;28;20434;-45
2024/02/24 11:42:13;;;;;;;1.17;0.40;;;8.70;99.90;;;;;;5030501;28;20853;-45
2024/02/24 11:44:45;;;;;;;1.87;0.70;;;8.70;99.90;;;;;;5030853;28;20463;-45
2024/02/24 11:47:19;;;;;;;1.10;0.60;;;8.70;99.90;;;;;;5032351;28;20475;-44
2024/02/24 11:49:49;;;;;;;3.53;1.03;;;8.70;99.90;;;;;;5029444;28;20456;-45
2024/02/24 11:52:18;;;;;;;1.30;0.50;;;8.70;99.90;;;;;;5031684;28;20460;-44
2024/02/24 11:54:47;;;;;;;1.87;0.67;;;8.70;99.90;;;;;;5035355;28;20539;-45
2024/02/24 11:57:18;;;;;;;1.00;0.43;;;8.70;99.90;;;;;;5026790;28;20487;-44
2024/02/24 11:59:48;;;;;;;1.60;0.67;;;8.70;99.90;;;;;;5030695;28;20428;-45
2024/02/24 12:02:17;;;;;;;1.33;0.50;;;8.70;99.90;;;;;;5007536;28;20482;-44
2024/02/24 12:04:47;;;;;;;1.57;0.77;;;8.70;99.90;;;;;;5007811;28;20456;-45
2024/02/24 12:07:18;;;;;;;1.50;0.40;;;8.70;99.90;;;;;;5026193;28;20518;-45
2024/02/24 12:09:47;;;;;;;1.67;0.53;;;8.70;99.90;;;;;;5030259;28;20428;-44
2024/02/24 12:12:22;;;;;;;1.53;0.43;;;8.70;99.90;;;;;;5028103;28;20482;-45
2024/02/24 12:14:51;;;;;;;1.53;0.63;;;8.70;99.90;;;;;;5031185;28;21056;-44
2024/02/24 12:17:23;;;;;;;1.10;0.50;;;8.70;99.90;;;;;;5029316;28;20977;-45
2024/02/24 12:19:57;;;;;;;1.20;0.40;;;8.70;99.90;;;;;;5027708;28;20488;-45
2024/02/24 12:22:30;;;;;;;9.83;1.47;;;8.70;99.90;;;;;;5030181;28;20467;-45
2024/02/24 12:25:12;;;;;;;1.93;0.70;;;8.70;99.90;;;;;;5030453;28;20475;-46
2024/02/24 12:27:41;;;;;;;1.60;0.60;;;8.80;99.90;;;;;;5024357;28;20837;-45
2024/02/24 12:30:13;;;;;;;1.73;0.60;;;8.80;99.90;;;;;;5029929;28;20436;-45
2024/02/24 12:32:42;;;;;;;3.23;0.50;;;8.80;99.90;;;;;;5030797;28;20872;-45
2024/02/24 12:35:12;;;;;;;1.00;0.40;;;8.80;99.90;;;;;;5028740;28;20463;-46
2024/02/24 12:37:46;;;;;;;1.47;0.53;;;8.80;99.90;;;;;;5031222;28;20463;-45
2024/02/24 12:40:28;;;;;;;4.20;0.77;;;8.80;99.90;;;;;;5024478;28;20475;-45
2024/02/24 12:42:57;;;;;;;2.23;0.53;;;8.80;99.90;;;;;;5030169;28;20786;-45
2024/02/24 12:45:26;;;;;;;1.77;0.60;;;8.80;99.90;;;;;;5029570;28;20961;-46
2024/02/24 12:47:58;;;;;;;1.83;0.87;;;8.80;99.90;;;;;;5028008;28;20823;-45
2024/02/24 12:50:28;;;;;;;2.07;0.50;;;8.70;99.90;;;;;;5023977;28;20563;-45
2024/02/24 12:52:58;;;;;;;2.10;0.57;;;8.70;99.90;;;;;;5030745;28;20432;-46
2024/02/24 12:55:27;;;;;;;1.20;0.50;;;8.70;99.90;;;;;;5029456;28;20476;-45
2024/02/24 12:57:55;;;;;;;1.07;0.47;;;8.70;99.90;;;;;;5025977;28;20447;-44
2024/02/24 13:00:27;;;;;;;1.87;0.73;;;8.70;99.90;;;;;;5025879;28;21052;-46
2024/02/24 13:02:58;;;;;;;1.80;0.50;;;8.70;99.90;;;;;;5015812;28;20447;-45
2024/02/24 13:05:27;;;;;;;2.37;1.37;;;8.70;99.90;;;;;;5022237;28;20539;-45
2024/02/24 13:07:58;;;;;;;1.20;0.40;;;8.70;99.90;;;;;;5028475;28;20424;-46
2024/02/24 13:10:26;;;;;;;1.70;0.70;;;8.70;99.90;;;;;;5029356;28;20428;-44
2024/02/24 13:12:57;;;;;;;12.83;1.40;;;8.70;99.90;;;;;;5026624;28;20523;-45
2024/02/24 13:15:29;;;;;;;1.93;0.83;;;8.70;99.90;;;;;;5030489;28;20479;-44